Time;durP1;ratioP1;P1;durP2;ratioP2;P2;SDS_P1;SDS_P2;PMS_P1;PMS_P2;Temp;Humidity;BMP_temperature;BMP_pressure;BME280_temperature;BME280_humidity;BME280_pressure;Samples;Min_cycle;Max_cycle;Signal;HPM_P1;HPM_P2
2022/07/28 00:00:45;;;;;;;18.75;12.40;;;20.00;99.90;;;;;;5037737;28;20509;-56
2022/07/28 00:03:11;;;;;;;18.65;11.80;;;20.00;99.90;;;;;;5055420;28;20390;-56
2022/07/28 00:05:37;;;;;;;20.55;12.10;;;20.00;99.90;;;;;;5055684;28;20116;-56
2022/07/28 00:08:04;;;;;;;15.65;12.15;;;20.00;99.90;;;;;;5037769;28;20433;-56
2022/07/28 00:10:31;;;;;;;20.40;14.52;;;20.00;99.90;;;;;;5055525;28;20112;-57
2022/07/28 00:12:58;;;;;;;21.40;14.68;;;20.00;99.90;;;;;;5055516;28;20032;-57
2022/07/28 00:15:25;;;;;;;22.80;15.85;;;20.00;99.90;;;;;;5055301;28;20086;-57
2022/07/28 00:17:51;;;;;;;24.38;18.45;;;20.00;99.90;;;;;;5055750;28;20021;-56
2022/07/28 00:20:17;;;;;;;21.50;16.70;;;20.00;99.90;;;;;;5055351;28;20110;-56
2022/07/28 00:22:44;;;;;;;23.83;18.17;;;20.00;99.90;;;;;;5055241;28;20098;-56
2022/07/28 00:25:11;;;;;;;27.08;18.90;;;20.00;99.90;;;;;;5055386;28;20588;-56
2022/07/28 00:27:37;;;;;;;26.13;18.38;;;19.90;99.90;;;;;;5055176;28;20108;-56
2022/07/28 00:30:06;;;;;;;27.38;19.90;;;19.90;99.90;;;;;;5054804;28;20036;-56
2022/07/28 00:32:32;;;;;;;27.60;18.42;;;19.80;99.90;;;;;;5055298;28;20105;-56
2022/07/28 00:34:58;;;;;;;27.65;19.60;;;19.90;99.90;;;;;;5055363;28;20509;-56
2022/07/28 00:37:24;;;;;;;25.52;18.77;;;20.00;99.90;;;;;;5054956;28;20036;-56
2022/07/28 00:39:50;;;;;;;29.70;20.90;;;19.90;99.90;;;;;;5055019;28;20108;-56
2022/07/28 00:42:18;;;;;;;25.88;19.95;;;20.00;99.90;;;;;;5054880;28;20093;-56
2022/07/28 00:44:44;;;;;;;26.30;18.98;;;19.90;99.90;;;;;;5053793;28;20052;-56
2022/07/28 00:47:10;;;;;;;27.27;19.15;;;20.00;99.90;;;;;;5054997;28;20466;-56
2022/07/28 00:49:37;;;;;;;27.98;19.90;;;19.90;99.90;;;;;;5054966;28;20029;-56
2022/07/28 00:52:05;;;;;;;29.10;19.40;;;19.90;99.90;;;;;;5054613;28;20037;-56
2022/07/28 00:54:32;;;;;;;27.45;19.70;;;19.90;99.90;;;;;;5054809;28;20025;-56
2022/07/28 00:56:58;;;;;;;32.08;20.73;;;19.90;99.90;;;;;;5036676;28;20029;-56
2022/07/28 00:59:25;;;;;;;32.25;20.23;;;19.80;99.90;;;;;;5053476;28;20167;-56
2022/07/28 01:01:51;;;;;;;26.80;19.92;;;19.80;99.90;;;;;;5054835;28;20108;-56
2022/07/28 01:04:18;;;;;;;24.75;18.27;;;19.90;99.90;;;;;;5054538;28;20033;-56
2022/07/28 01:06:50;;;;;;;24.92;18.08;;;20.00;99.90;;;;;;5054572;28;20033;-56
2022/07/28 01:09:37;;;;;;;26.75;18.10;;;20.00;99.90;;;;;;5036702;28;20040;-56
2022/07/28 01:12:24;;;;;;;25.33;17.95;;;19.90;99.90;;;;;;5054541;28;20028;-56
2022/07/28 01:15:00;;;;;;;24.35;18.67;;;19.70;99.90;;;;;;5054392;28;20040;-56
2022/07/28 01:17:37;;;;;;;27.73;19.05;;;19.70;99.90;;;;;;5054732;28;20021;-56
2022/07/28 01:20:20;;;;;;;27.58;18.60;;;19.70;99.90;;;;;;5054343;28;20064;-56
2022/07/28 01:23:01;;;;;;;25.00;19.63;;;19.70;99.90;;;;;;5054350;28;20033;-56
2022/07/28 01:25:39;;;;;;;25.63;19.35;;;19.70;99.90;;;;;;5054428;28;20108;-56
2022/07/28 01:28:04;;;;;;;24.80;18.70;;;19.70;99.90;;;;;;5054069;28;20074;-56
2022/07/28 01:30:47;;;;;;;25.35;19.58;;;19.60;99.90;;;;;;5054285;28;20085;-56
2022/07/28 01:33:43;;;;;;;24.15;18.67;;;19.70;99.90;;;;;;5054406;28;20032;-56
2022/07/28 01:36:13;;;;;;;27.63;19.85;;;19.60;99.90;;;;;;5054309;28;20037;-56
2022/07/28 01:38:40;;;;;;;24.80;19.17;;;19.60;99.90;;;;;;5053916;28;20112;-56
2022/07/28 01:41:21;;;;;;;32.88;20.80;;;19.80;99.90;;;;;;5054263;28;20025;-56
2022/07/28 01:44:07;;;;;;;;;;;19.90;99.90;;;;;;5058513;28;20538;-56
2022/07/28 01:46:34;;;;;;;27.67;19.63;;;19.80;99.90;;;;;;5058338;28;19940;-57
2022/07/28 01:49:01;;;;;;;28.50;20.17;;;19.70;99.90;;;;;;5058192;28;20414;-56
2022/07/28 01:51:29;;;;;;;25.77;18.75;;;19.80;99.90;;;;;;5058017;28;20492;-56
2022/07/28 01:53:59;;;;;;;27.63;19.83;;;19.70;99.90;;;;;;5058154;28;20029;-56
2022/07/28 01:56:27;;;;;;;25.85;19.17;;;19.70;99.90;;;;;;5058149;28;20033;-57
2022/07/28 01:58:57;;;;;;;29.30;20.10;;;19.70;99.90;;;;;;5057997;28;20040;-56
2022/07/28 02:01:25;;;;;;;25.15;19.98;;;19.70;99.90;;;;;;5057992;28;20078;-56
2022/07/28 02:03:55;;;;;;;26.13;18.73;;;19.60;99.90;;;;;;5058167;28;20057;-56
2022/07/28 02:06:22;;;;;;;27.15;19.73;;;19.70;99.90;;;;;;5058355;28;20035;-56
2022/07/28 02:08:51;;;;;;;24.48;19.95;;;19.60;99.90;;;;;;5057923;28;20029;-56
2022/07/28 02:14:02;;;;;;;27.27;18.98;;;19.60;99.90;;;;;;5057622;28;20099;-56
2022/07/28 02:16:30;;;;;;;25.67;18.52;;;19.60;99.90;;;;;;5057540;28;20067;-56
2022/07/28 02:18:59;;;;;;;27.13;18.75;;;19.70;99.90;;;;;;5057529;28;20056;-56
2022/07/28 02:21:27;;;;;;;27.95;18.85;;;19.70;99.90;;;;;;5057664;28;20028;-57
2022/07/28 02:23:53;;;;;;;24.33;18.60;;;19.80;99.90;;;;;;5057646;28;20115;-56
2022/07/28 02:26:27;;;;;;;24.75;18.52;;;19.70;99.90;;;;;;5057587;28;20033;-57
2022/07/28 02:28:56;;;;;;;24.55;19.10;;;19.70;99.90;;;;;;5057618;28;20025;-57
2022/07/28 02:31:27;;;;;;;23.55;18.90;;;19.70;99.90;;;;;;5057324;28;20052;-56
2022/07/28 02:33:58;;;;;;;28.95;19.50;;;19.60;99.90;;;;;;5057323;28;20025;-56
2022/07/28 02:36:30;;;;;;;31.98;18.67;;;19.70;99.90;;;;;;5057450;28;20025;-56
2022/07/28 02:39:01;;;;;;;27.23;20.25;;;19.70;99.90;;;;;;5057005;28;20028;-56
2022/07/28 02:41:30;;;;;;;27.35;19.23;;;19.70;99.90;;;;;;5057311;28;20103;-56
2022/07/28 02:44:03;;;;;;;30.98;20.02;;;19.70;99.90;;;;;;5057274;28;20458;-57
2022/07/28 02:46:39;;;;;;;29.90;21.30;;;19.70;99.90;;;;;;5057046;28;20441;-56
2022/07/28 02:49:11;;;;;;;32.65;20.85;;;19.60;99.90;;;;;;5057161;28;20082;-56
2022/07/28 02:51:41;;;;;;;29.65;20.83;;;19.60;99.90;;;;;;5056852;28;20033;-57
2022/07/28 02:54:08;;;;;;;32.70;21.33;;;19.60;99.90;;;;;;5056950;28;20432;-57
2022/07/28 02:56:34;;;;;;;37.55;24.13;;;19.60;99.90;;;;;;5057073;28;20337;-57
2022/07/28 02:59:02;;;;;;;45.60;27.50;;;19.60;99.90;;;;;;5056739;28;20432;-57
2022/07/28 03:01:29;;;;;;;42.05;27.30;;;19.70;99.90;;;;;;5056641;28;20120;-57
2022/07/28 03:03:55;;;;;;;39.50;25.63;;;19.70;99.90;;;;;;5056638;28;20458;-57
2022/07/28 03:06:22;;;;;;;56.22;31.88;;;19.70;99.90;;;;;;5056747;28;20029;-57
2022/07/28 03:08:51;;;;;;;53.22;30.90;;;19.60;99.90;;;;;;5056917;28;20035;-56
2022/07/28 03:11:17;;;;;;;48.00;28.98;;;19.60;99.90;;;;;;5056690;28;20112;-57
2022/07/28 03:13:43;;;;;;;57.42;31.75;;;19.60;99.90;;;;;;5056462;28;20603;-56
2022/07/28 03:16:09;;;;;;;53.20;31.30;;;19.50;99.90;;;;;;5057009;28;20033;-57
2022/07/28 03:18:35;;;;;;;86.03;44.20;;;19.50;99.90;;;;;;5056422;28;20044;-57
2022/07/28 03:21:01;;;;;;;112.22;52.55;;;19.60;99.90;;;;;;5056584;28;20037;-56
2022/07/28 03:23:42;;;;;;;118.70;53.40;;;19.60;99.90;;;;;;5056408;28;20035;-57
2022/07/28 03:26:11;;;;;;;;;;;19.60;99.90;;;;;;5056859;28;20374;-57
2022/07/28 03:28:38;;;;;;;92.90;44.85;;;19.70;99.90;;;;;;5056488;28;20365;-56
2022/07/28 03:31:08;;;;;;;95.75;45.97;;;19.70;99.90;;;;;;5056400;28;20032;-57
2022/07/28 03:33:35;;;;;;;120.57;52.10;;;19.60;99.90;;;;;;5056455;28;20033;-57
2022/07/28 03:36:07;;;;;;;148.80;58.53;;;19.60;99.90;;;;;;5056347;28;20056;-56
2022/07/28 03:38:40;;;;;;;174.63;63.40;;;19.60;99.90;;;;;;5055964;28;20100;-57
2022/07/28 03:41:09;;;;;;;175.80;65.22;;;19.60;99.90;;;;;;5056334;28;20065;-57
2022/07/28 03:43:35;;;;;;;144.88;59.53;;;19.70;99.90;;;;;;5055990;28;20390;-56
2022/07/28 03:46:01;;;;;;;140.77;60.45;;;19.60;99.90;;;;;;5056193;28;20021;-57
2022/07/28 03:48:28;;;;;;;138.30;56.88;;;19.60;99.90;;;;;;5055999;28;20067;-57
2022/07/28 03:50:54;;;;;;;135.20;54.95;;;19.60;99.90;;;;;;5055791;28;20049;-57
2022/07/28 03:53:26;;;;;;;132.82;57.20;;;19.60;99.90;;;;;;5056076;28;20359;-57
2022/07/28 03:55:53;;;;;;;118.05;54.95;;;19.60;99.90;;;;;;5055741;28;20041;-56
2022/07/28 03:58:20;;;;;;;133.40;59.58;;;19.60;99.90;;;;;;5055690;28;20053;-57
2022/07/28 04:00:47;;;;;;;116.90;54.33;;;19.60;99.90;;;;;;5055743;28;20521;-57
2022/07/28 04:03:13;;;;;;;114.63;52.78;;;19.70;99.90;;;;;;5055595;28;20064;-57
2022/07/28 04:05:38;;;;;;;108.97;52.33;;;19.60;99.90;;;;;;5055308;28;20032;-57
2022/07/28 04:08:05;;;;;;;95.82;47.25;;;19.60;99.90;;;;;;5055766;28;20517;-56
2022/07/28 04:10:31;;;;;;;89.13;45.85;;;19.60;99.90;;;;;;5055450;28;20029;-57
2022/07/28 04:12:58;;;;;;;96.45;47.17;;;19.50;99.90;;;;;;5055596;28;20035;-57
2022/07/28 04:15:25;;;;;;;92.75;44.55;;;19.60;99.90;;;;;;5055358;28;20029;-57
2022/07/28 04:17:53;;;;;;;76.38;40.95;;;19.60;99.90;;;;;;5055477;28;20035;-57
2022/07/28 04:20:21;;;;;;;77.00;40.08;;;19.50;99.90;;;;;;5055275;28;20132;-56
2022/07/28 04:22:48;;;;;;;68.80;39.55;;;19.40;99.90;;;;;;5055448;28;20514;-57
2022/07/28 04:25:17;;;;;;;68.50;37.05;;;19.50;99.90;;;;;;5055248;28;20047;-57
2022/07/28 04:27:44;;;;;;;62.83;34.17;;;19.50;99.90;;;;;;5055139;28;20392;-56
2022/07/28 04:30:16;;;;;;;61.55;36.15;;;19.40;99.90;;;;;;5055192;28;20036;-57
2022/07/28 04:32:46;;;;;;;70.13;38.10;;;19.50;99.90;;;;;;5055353;28;20425;-56
2022/07/28 04:35:13;;;;;;;65.10;36.47;;;19.50;99.90;;;;;;5055186;28;20490;-57
2022/07/28 04:37:39;;;;;;;62.63;35.47;;;19.40;99.90;;;;;;5055010;28;20082;-57
2022/07/28 04:40:07;;;;;;;65.88;36.58;;;19.40;99.90;;;;;;5054619;28;20033;-57
2022/07/28 04:42:33;;;;;;;56.70;32.63;;;19.40;99.90;;;;;;5054959;28;20207;-57
2022/07/28 04:44:59;;;;;;;55.30;31.55;;;19.50;99.90;;;;;;5054978;28;20350;-57
2022/07/28 04:47:25;;;;;;;50.22;28.88;;;19.50;99.90;;;;;;5054898;28;20477;-57
2022/07/28 04:49:51;;;;;;;47.55;29.85;;;19.50;99.90;;;;;;5054871;28;20037;-57
2022/07/28 04:52:17;;;;;;;53.25;30.42;;;19.50;99.90;;;;;;5054744;28;20079;-57
2022/07/28 04:54:44;;;;;;;53.92;31.48;;;19.50;99.90;;;;;;5054687;28;20035;-57
2022/07/28 04:57:10;;;;;;;46.70;28.15;;;19.70;99.90;;;;;;5054736;28;20024;-57
2022/07/28 04:59:37;;;;;;;48.22;29.10;;;19.80;99.90;;;;;;5036790;28;20025;-57
2022/07/28 05:02:03;;;;;;;48.67;27.27;;;19.80;99.90;;;;;;5054519;28;20017;-57
2022/07/28 05:04:29;;;;;;;42.20;28.00;;;19.80;99.90;;;;;;5054606;28;20147;-57
2022/07/28 05:06:55;;;;;;;49.33;29.40;;;19.80;99.90;;;;;;5054427;28;20024;-57
2022/07/28 05:09:21;;;;;;;46.10;28.77;;;19.80;99.90;;;;;;5054597;28;20029;-56
2022/07/28 05:11:47;;;;;;;48.90;30.73;;;19.90;99.90;;;;;;5054495;28;20036;-57
2022/07/28 05:14:13;;;;;;;53.33;30.75;;;19.80;99.90;;;;;;5054233;28;20139;-57
2022/07/28 05:16:39;;;;;;;52.55;30.85;;;19.80;99.90;;;;;;5035639;28;20052;-57
2022/07/28 05:19:05;;;;;;;55.13;32.45;;;19.90;99.90;;;;;;5054068;28;20033;-57
2022/07/28 05:21:31;;;;;;;51.83;31.05;;;19.90;99.90;;;;;;5054215;28;20025;-57
2022/07/28 05:23:57;;;;;;;47.00;28.75;;;20.10;99.90;;;;;;5053739;28;20124;-57
2022/07/28 05:26:23;;;;;;;46.60;27.85;;;20.10;99.90;;;;;;5050315;28;20029;-57
2022/07/28 05:28:49;;;;;;;43.55;26.52;;;20.20;99.90;;;;;;5053557;28;20036;-57
2022/07/28 05:31:15;;;;;;;41.33;24.25;;;20.10;99.90;;;;;;5049719;28;20067;-57
2022/07/28 05:33:41;;;;;;;38.50;24.88;;;20.10;99.90;;;;;;5051833;28;20032;-57
2022/07/28 05:36:07;;;;;;;53.60;31.25;;;20.20;99.90;;;;;;5053832;28;20458;-57
2022/07/28 05:38:34;;;;;;;44.90;28.85;;;20.30;99.90;;;;;;5050408;28;20021;-57
2022/07/28 05:41:00;;;;;;;52.80;30.73;;;20.20;99.90;;;;;;5044254;28;20029;-57
2022/07/28 05:43:29;;;;;;;55.63;32.80;;;20.30;99.90;;;;;;5053241;28;20036;-57
2022/07/28 05:45:55;;;;;;;70.45;39.30;;;20.30;99.90;;;;;;5016096;28;20034;-57
2022/07/28 05:48:21;;;;;;;80.68;46.55;;;20.30;99.90;;;;;;5034305;28;20438;-57
2022/07/28 05:50:48;;;;;;;97.35;48.88;;;20.40;99.90;;;;;;5044389;28;20167;-57
2022/07/28 05:53:15;;;;;;;95.05;53.03;;;20.50;99.90;;;;;;5053970;28;20406;-57
2022/07/28 05:55:40;;;;;;;101.13;53.15;;;20.50;99.90;;;;;;5054055;28;20032;-57
2022/07/28 05:58:07;;;;;;;108.88;56.88;;;20.40;99.90;;;;;;5053518;28;20033;-57
2022/07/28 06:00:32;;;;;;;124.28;61.63;;;20.50;99.90;;;;;;5054052;28;20060;-57
2022/07/28 06:03:02;;;;;;;125.57;61.90;;;20.60;99.90;;;;;;5053930;28;20455;-57
2022/07/28 06:05:29;;;;;;;120.55;58.90;;;20.60;99.90;;;;;;5052111;28;20025;-57
2022/07/28 06:07:56;;;;;;;132.52;65.25;;;20.60;99.90;;;;;;5039329;28;20037;-57
2022/07/28 06:10:25;;;;;;;141.45;67.30;;;20.70;99.90;;;;;;5032782;28;20348;-57
2022/07/28 06:12:53;;;;;;;134.80;65.70;;;20.70;99.90;;;;;;5038015;28;20025;-57
2022/07/28 06:15:25;;;;;;;149.82;72.50;;;21.00;99.90;;;;;;5053800;28;20029;-57
2022/07/28 06:17:54;;;;;;;155.20;74.15;;;21.00;99.90;;;;;;5052735;28;20021;-57
2022/07/28 06:20:24;;;;;;;147.60;71.07;;;21.00;99.90;;;;;;5047398;28;20140;-57
2022/07/28 06:22:53;;;;;;;134.93;65.93;;;21.00;99.90;;;;;;5036922;28;20033;-57
2022/07/28 06:25:28;;;;;;;138.18;65.63;;;21.20;99.90;;;;;;5050065;28;20025;-57
2022/07/28 06:27:56;;;;;;;137.13;66.57;;;21.20;99.90;;;;;;5054261;28;20479;-57
2022/07/28 06:30:23;;;;;;;142.55;64.88;;;21.30;99.90;;;;;;5057308;28;20379;-57
2022/07/28 06:32:49;;;;;;;135.25;70.55;;;21.30;99.90;;;;;;5057486;28;20513;-57
2022/07/28 06:35:16;;;;;;;140.95;66.80;;;21.30;99.90;;;;;;5057049;28;20013;-57
2022/07/28 06:37:43;;;;;;;147.10;68.40;;;21.30;99.90;;;;;;5056384;28;20471;-57
2022/07/28 06:40:11;;;;;;;143.55;70.68;;;21.40;99.90;;;;;;5056400;28;20481;-57
2022/07/28 06:42:37;;;;;;;140.15;69.35;;;21.40;99.90;;;;;;5054756;28;20025;-57
2022/07/28 06:45:05;;;;;;;143.88;68.78;;;21.50;99.90;;;;;;5038008;28;20045;-57
2022/07/28 06:47:31;;;;;;;164.65;78.32;;;21.50;99.90;;;;;;5056475;28;20554;-57
2022/07/28 06:49:57;;;;;;;177.20;84.03;;;21.60;99.90;;;;;;5054463;28;20025;-57
2022/07/28 06:52:23;;;;;;;171.65;80.63;;;21.70;99.90;;;;;;5055792;28;20071;-57
2022/07/28 06:54:51;;;;;;;175.80;80.78;;;21.80;99.90;;;;;;5056441;28;20390;-57
2022/07/28 06:57:21;;;;;;;165.68;75.65;;;21.90;99.90;;;;;;5053731;28;20082;-57
2022/07/28 06:59:48;;;;;;;145.68;63.70;;;22.00;99.90;;;;;;5056443;28;20025;-57
2022/07/28 07:02:15;;;;;;;136.35;61.22;;;22.00;99.90;;;;;;5056110;28;20028;-57
2022/07/28 07:04:41;;;;;;;107.28;51.33;;;22.10;99.90;;;;;;5056282;28;20457;-57
2022/07/28 07:07:07;;;;;;;88.38;43.95;;;22.10;99.90;;;;;;5056712;28;20025;-57
2022/07/28 07:09:33;;;;;;;91.57;43.42;;;22.20;99.90;;;;;;5056002;28;20024;-57
2022/07/28 07:12:00;;;;;;;118.85;56.00;;;22.20;99.90;;;;;;5037478;28;20036;-57
2022/07/28 07:14:27;;;;;;;115.72;54.50;;;22.50;99.90;;;;;;5056407;28;20025;-57
2022/07/28 07:16:53;;;;;;;108.57;52.42;;;22.60;99.90;;;;;;5055297;28;20034;-57
2022/07/28 07:19:20;;;;;;;114.40;51.90;;;22.80;99.90;;;;;;5056014;28;20052;-57
2022/07/28 07:21:47;;;;;;;105.97;49.60;;;22.90;99.90;;;;;;5056316;28;20098;-57
2022/07/28 07:24:13;;;;;;;100.30;50.53;;;22.90;99.90;;;;;;5056392;28;20092;-57
2022/07/28 07:26:39;;;;;;;106.65;49.67;;;23.10;99.90;;;;;;5055506;28;20389;-57
2022/07/28 07:29:06;;;;;;;71.60;40.08;;;23.40;99.90;;;;;;5056370;28;20301;-57
2022/07/28 07:31:36;;;;;;;93.18;44.35;;;23.60;99.90;;;;;;5054612;28;20551;-57
2022/07/28 07:34:02;;;;;;;96.13;48.45;;;23.50;99.90;;;;;;5055500;28;20144;-57
2022/07/28 07:36:28;;;;;;;110.20;51.95;;;23.80;99.90;;;;;;5056197;28;20017;-57
2022/07/28 07:38:54;;;;;;;100.75;50.83;;;24.00;99.90;;;;;;5054845;28;20044;-57
2022/07/28 07:41:20;;;;;;;105.93;52.72;;;24.30;99.90;;;;;;5054755;28;20029;-57
2022/07/28 07:43:47;;;;;;;86.65;46.30;;;24.40;99.90;;;;;;5055981;28;20020;-57
2022/07/28 07:46:14;;;;;;;94.78;48.13;;;24.60;99.90;;;;;;5054725;28;20024;-57
2022/07/28 07:48:40;;;;;;;100.97;50.53;;;24.60;99.90;;;;;;5053000;28;20028;-57
2022/07/28 07:51:07;;;;;;;109.72;54.97;;;24.40;99.90;;;;;;5047605;28;20029;-57
2022/07/28 07:53:33;;;;;;;106.40;52.90;;;24.30;99.90;;;;;;5049712;28;20025;-57
2022/07/28 07:55:58;;;;;;;107.07;53.42;;;24.70;99.90;;;;;;5053110;28;20025;-57
2022/07/28 07:58:25;;;;;;;107.70;53.15;;;24.70;99.90;;;;;;5051425;28;20111;-57
2022/07/28 08:00:52;;;;;;;112.72;53.97;;;25.00;99.90;;;;;;5053843;28;20057;-57
2022/07/28 08:03:18;;;;;;;102.88;51.90;;;25.10;99.90;;;;;;5045305;28;20095;-57
2022/07/28 08:05:45;;;;;;;91.18;47.08;;;25.30;99.90;;;;;;5035516;28;20060;-57
2022/07/28 08:08:11;;;;;;;94.45;49.28;;;25.40;99.70;;;;;;5034894;28;20483;-57
2022/07/28 08:10:38;;;;;;;107.10;53.42;;;25.30;99.90;;;;;;5049970;28;20027;-57
2022/07/28 08:13:05;;;;;;;84.13;45.95;;;25.60;99.90;;;;;;5054425;28;20441;-57
2022/07/28 08:15:32;;;;;;;88.00;47.00;;;25.50;97.80;;;;;;5054385;28;20017;-57
2022/07/28 08:17:59;;;;;;;89.53;47.17;;;25.70;97.80;;;;;;5054500;28;20111;-57
2022/07/28 08:20:26;;;;;;;98.80;49.83;;;25.70;97.50;;;;;;5054312;28;20057;-57
2022/07/28 08:22:54;;;;;;;83.20;44.05;;;25.50;98.40;;;;;;5051944;28;20025;-57
2022/07/28 08:25:20;;;;;;;88.00;45.33;;;25.50;97.80;;;;;;5053260;28;20063;-57
2022/07/28 08:27:46;;;;;;;78.20;42.72;;;25.60;97.20;;;;;;5044927;28;20021;-57
2022/07/28 08:30:22;;;;;;;89.30;44.35;;;25.60;98.10;;;;;;5050883;28;20032;-57
2022/07/28 08:32:48;;;;;;;79.13;43.35;;;25.50;99.60;;;;;;5049343;28;20044;-57
2022/07/28 08:35:17;;;;;;;68.70;36.63;;;25.60;97.70;;;;;;5052525;28;20386;-57
2022/07/28 08:37:43;;;;;;;65.95;36.45;;;25.80;94.90;;;;;;5053886;28;20021;-57
2022/07/28 08:40:15;;;;;;;77.63;41.35;;;25.40;95.10;;;;;;5047792;28;20371;-57
2022/07/28 08:42:49;;;;;;;75.85;42.60;;;25.50;98.40;;;;;;5050905;28;20048;-57
2022/07/28 08:45:17;;;;;;;91.60;44.30;;;25.80;96.20;;;;;;5053358;28;20033;-57
2022/07/28 08:47:44;;;;;;;85.05;41.25;;;25.80;95.00;;;;;;5051362;28;20111;-57
2022/07/28 08:50:12;;;;;;;79.18;39.78;;;25.80;95.60;;;;;;5049929;28;20111;-57
2022/07/28 08:52:39;;;;;;;73.28;39.22;;;25.70;95.60;;;;;;5047054;28;20032;-57
2022/07/28 08:55:07;;;;;;;59.60;33.05;;;26.40;96.00;;;;;;5049543;28;20037;-57
2022/07/28 08:57:35;;;;;;;66.35;34.72;;;26.80;95.70;;;;;;5051634;28;20521;-57
2022/07/28 09:00:03;;;;;;;63.20;33.95;;;26.90;92.20;;;;;;5054582;28;20036;-57
2022/07/28 09:02:30;;;;;;;59.08;32.83;;;26.90;92.70;;;;;;5054651;28;20025;-57
2022/07/28 09:04:59;;;;;;;65.95;33.65;;;27.40;91.10;;;;;;5030899;28;20030;-57
2022/07/28 09:07:26;;;;;;;65.53;34.47;;;27.70;89.10;;;;;;5048624;28;20033;-57
2022/07/28 09:09:52;;;;;;;67.22;34.72;;;27.70;86.60;;;;;;5050105;28;20132;-57
2022/07/28 09:12:18;;;;;;;68.85;33.63;;;28.00;88.80;;;;;;5026596;28;20033;-57
2022/07/28 09:14:44;;;;;;;64.65;32.15;;;28.30;79.70;;;;;;5051060;28;20056;-57
2022/07/28 09:17:10;;;;;;;76.07;33.10;;;28.40;78.00;;;;;;5046518;28;20021;-57
2022/07/28 09:19:39;;;;;;;63.33;31.08;;;28.50;78.90;;;;;;5046629;28;20041;-57
2022/07/28 09:22:08;;;;;;;60.28;29.30;;;28.80;74.80;;;;;;5043940;28;20474;-57
2022/07/28 09:24:39;;;;;;;61.80;30.90;;;28.10;74.30;;;;;;5049638;28;20032;-57
2022/07/28 09:27:11;;;;;;;48.67;25.50;;;28.20;74.60;;;;;;5048718;28;20439;-57
2022/07/28 09:29:39;;;;;;;77.35;33.70;;;28.70;71.90;;;;;;5041812;28;20054;-58
2022/07/28 09:32:06;;;;;;;66.97;31.70;;;29.00;69.70;;;;;;5048777;28;20029;-57
2022/07/28 09:34:46;;;;;;;74.72;31.63;;;29.10;68.70;;;;;;5043108;28;20036;-57
2022/07/28 09:37:24;;;;;;;59.17;26.93;;;29.30;65.20;;;;;;5047672;28;20462;-58
2022/07/28 09:39:51;;;;;;;54.40;24.63;;;29.20;63.20;;;;;;5046222;28;20352;-57
2022/07/28 09:42:18;;;;;;;84.85;34.30;;;29.50;61.50;;;;;;5047650;28;20066;-57
2022/07/28 09:45:00;;;;;;;78.82;34.00;;;28.80;64.30;;;;;;5043379;28;20039;-57
2022/07/28 09:47:31;;;;;;;126.03;49.67;;;29.90;67.00;;;;;;5042338;28;20023;-57
2022/07/28 09:49:57;;;;;;;119.47;47.50;;;30.30;65.20;;;;;;5042264;28;20033;-57
2022/07/28 09:52:30;;;;;;;105.03;43.22;;;30.60;66.00;;;;;;5046989;28;20108;-58
2022/07/28 09:55:05;;;;;;;88.78;41.42;;;30.40;66.90;;;;;;5046009;28;20497;-57
2022/07/28 09:57:33;;;;;;;105.55;46.45;;;30.40;62.10;;;;;;5046016;28;20378;-58
2022/07/28 10:00:01;;;;;;;83.93;37.50;;;30.60;59.90;;;;;;5050029;28;20021;-58
2022/07/28 10:02:30;;;;;;;84.22;37.20;;;30.60;61.10;;;;;;5044146;28;20033;-58
2022/07/28 10:04:59;;;;;;;80.78;32.53;;;30.50;58.80;;;;;;5048494;28;20341;-58
2022/07/28 10:07:29;;;;;;;86.00;37.35;;;30.40;58.50;;;;;;5050232;28;20509;-58
2022/07/28 10:10:06;;;;;;;90.07;40.15;;;29.90;62.00;;;;;;5054721;28;20029;-57
2022/07/28 10:12:35;;;;;;;91.88;37.85;;;30.00;60.60;;;;;;5053039;28;20017;-57
2022/07/28 10:18:04;;;;;;;97.88;40.33;;;30.30;67.50;;;;;;5048408;28;20116;-57
2022/07/28 10:20:32;;;;;;;82.00;37.50;;;30.30;61.90;;;;;;5052359;28;20053;-57
2022/07/28 10:23:08;;;;;;;83.93;34.53;;;29.40;62.10;;;;;;5050749;28;20037;-57
2022/07/28 10:25:37;;;;;;;86.00;37.67;;;29.20;62.70;;;;;;5055009;28;20035;-57
2022/07/28 10:28:04;;;;;;;86.03;35.43;;;29.40;67.20;;;;;;5057163;28;20025;-57
2022/07/28 10:30:36;;;;;;;71.75;28.95;;;29.50;61.60;;;;;;5057139;28;20033;-57
2022/07/28 10:33:05;;;;;;;71.85;34.30;;;29.50;58.90;;;;;;5057226;28;20360;-57
2022/07/28 10:35:32;;;;;;;68.40;29.33;;;29.20;61.60;;;;;;5057113;28;20493;-57
2022/07/28 10:38:01;;;;;;;74.30;31.42;;;29.00;58.70;;;;;;5057218;28;20040;-57
2022/07/28 10:40:39;;;;;;;53.95;26.25;;;28.80;59.60;;;;;;5056896;28;20447;-57
2022/07/28 10:43:06;;;;;;;57.92;24.33;;;28.70;60.00;;;;;;5056816;28;20116;-57
2022/07/28 10:45:32;;;;;;;57.38;25.00;;;28.70;58.00;;;;;;5057021;28;20113;-57
2022/07/28 10:47:59;;;;;;;53.53;24.15;;;28.60;59.70;;;;;;5057167;28;20110;-57
2022/07/28 10:50:25;;;;;;;56.00;24.42;;;28.70;59.40;;;;;;5056747;28;20502;-57
2022/07/28 10:52:52;;;;;;;48.42;20.83;;;28.70;57.80;;;;;;5057103;28;20036;-57
2022/07/28 10:55:47;;;;;;;48.88;19.60;;;28.20;57.50;;;;;;5056772;28;20348;-57
2022/07/28 10:58:20;;;;;;;52.05;22.48;;;28.40;57.10;;;;;;5056795;28;20509;-57
2022/07/28 11:00:47;;;;;;;36.40;16.23;;;28.20;58.70;;;;;;5056499;28;20029;-57
2022/07/28 11:03:42;;;;;;;44.10;17.50;;;28.30;61.10;;;;;;5056474;28;20124;-57
2022/07/28 11:06:34;;;;;;;24.40;12.35;;;28.50;58.90;;;;;;5056636;28;20056;-57
2022/07/28 11:09:16;;;;;;;33.00;13.70;;;28.70;57.60;;;;;;5056913;28;20459;-57
2022/07/28 11:11:56;;;;;;;28.88;13.20;;;29.00;57.30;;;;;;5056845;28;20025;-57
2022/07/28 11:14:23;;;;;;;25.10;13.10;;;29.30;56.70;;;;;;5055524;28;20075;-57
2022/07/28 11:17:04;;;;;;;28.60;13.13;;;29.40;55.10;;;;;;5050397;28;20028;-57
2022/07/28 11:19:45;;;;;;;23.20;12.05;;;29.80;54.70;;;;;;5036207;28;20091;-57
2022/07/28 11:22:14;;;;;;;27.58;12.52;;;30.00;53.00;;;;;;5046656;28;20032;-57
2022/07/28 11:24:56;;;;;;;25.30;11.90;;;30.10;52.70;;;;;;5046741;28;20033;-57
2022/07/28 11:27:40;;;;;;;23.60;11.27;;;30.20;53.30;;;;;;5054520;28;20030;-57
2022/07/28 11:30:11;;;;;;;23.20;10.90;;;30.20;52.30;;;;;;5043368;28;20489;-57
2022/07/28 11:32:49;;;;;;;21.00;11.43;;;30.10;52.50;;;;;;5051880;28;20095;-57
2022/07/28 11:35:16;;;;;;;25.25;12.32;;;30.20;52.90;;;;;;5048444;28;20040;-57
2022/07/28 11:38:00;;;;;;;24.42;12.07;;;30.10;53.70;;;;;;5040115;28;20413;-57
2022/07/28 11:40:35;;;;;;;24.30;11.85;;;30.20;53.20;;;;;;5047740;28;20162;-57
2022/07/28 11:43:19;;;;;;;20.60;11.20;;;30.30;52.80;;;;;;5051701;28;20035;-57
2022/07/28 11:45:51;;;;;;;27.48;11.80;;;30.90;54.00;;;;;;5042699;28;20505;-57
2022/07/28 11:48:20;;;;;;;28.98;12.45;;;31.30;51.80;;;;;;5043103;28;20029;-57
2022/07/28 11:51:13;;;;;;;22.30;10.82;;;31.50;52.40;;;;;;5047126;28;20447;-57
2022/07/28 11:53:44;;;;;;;21.60;10.73;;;31.20;50.20;;;;;;5039581;28;20360;-58
2022/07/28 11:56:14;;;;;;;25.00;11.10;;;31.30;51.00;;;;;;5047763;28;20176;-57
2022/07/28 11:58:41;;;;;;;32.55;13.30;;;31.40;53.60;;;;;;5052859;28;20024;-57
2022/07/28 12:01:16;;;;;;;22.67;11.50;;;31.20;52.60;;;;;;5055624;28;20029;-57
2022/07/28 12:03:47;;;;;;;21.02;10.73;;;31.30;51.80;;;;;;5049313;28;20033;-57
2022/07/28 12:06:13;;;;;;;21.17;12.10;;;31.20;53.40;;;;;;5037949;28;20033;-57
2022/07/28 12:08:55;;;;;;;17.35;10.13;;;31.30;53.60;;;;;;5043303;28;20065;-57
2022/07/28 12:11:25;;;;;;;11.85;8.32;;;31.80;54.40;;;;;;5043609;28;20021;-57
2022/07/28 12:14:01;;;;;;;14.73;8.73;;;31.60;53.00;;;;;;5040477;28;20077;-57
2022/07/28 12:16:28;;;;;;;11.85;8.63;;;31.20;52.70;;;;;;5035651;28;20034;-57
2022/07/28 12:18:55;;;;;;;11.52;6.85;;;31.10;52.20;;;;;;5035426;28;20038;-57
2022/07/28 12:21:40;;;;;;;22.75;9.13;;;31.30;52.10;;;;;;5035613;28;20057;-57
2022/07/28 12:24:10;;;;;;;14.65;8.00;;;31.30;52.80;;;;;;5035497;28;20051;-57
2022/07/28 12:26:37;;;;;;;26.85;10.15;;;31.00;53.60;;;;;;5043517;28;20029;-58
2022/07/28 12:29:04;;;;;;;15.23;8.70;;;30.70;54.30;;;;;;5037032;28;20033;-57
2022/07/28 12:31:32;;;;;;;29.48;12.07;;;30.70;55.30;;;;;;5035164;28;20039;-57
2022/07/28 12:34:05;;;;;;;12.82;8.20;;;31.10;54.20;;;;;;5038196;28;20426;-57
2022/07/28 12:36:35;;;;;;;15.57;8.70;;;31.00;54.10;;;;;;5051629;28;20052;-58
2022/07/28 12:39:01;;;;;;;;;;;31.00;54.60;;;;;;5048648;28;20087;-57
2022/07/28 12:41:36;;;;;;;11.50;7.00;;;31.00;54.20;;;;;;5045803;28;19909;-58